Ammon, Idaho
Current Conditions -  °F | °C
As of 11:53 AM on Thursday 30 Oct 2014 (Local Time) from KIDA Reporting Station
Few Clouds Few Clouds  
Wind Chill: 14°   Ceiling: Unl
Heat Index: 14°   Visibility: 10mi
Dew Point:   Wind: 7mph
Humidity: 44%   Direction: 20°NNE
Pressure: 30.3"   Gusts: NA
Location:  43.4284°N, 111.925°W
Report Text: KIDA 301753Z 02006KT 10SM FEW100 14/02 A3030 RMK AO2 SLP248 T01390017 10139 20006 58002
Loading
Personal Weather Stations






























Interactive Weather Map
Tropical Storm Tracking
New forecast layout! Learn more

10-Day Weather Forecast

Advertisements
Track Severe Weather on mobile